sensor_id;sensor_type;location;lat;lon;timestamp;temperature;humidity
10121;DHT22;5100;45.176;5.714;2022-10-22T00:00:23;19.50;83.40
10121;DHT22;5100;45.176;5.714;2022-10-22T00:02:50;19.50;83.60
10121;DHT22;5100;45.176;5.714;2022-10-22T00:05:16;19.50;83.80
10121;DHT22;5100;45.176;5.714;2022-10-22T00:07:42;19.50;83.90
10121;DHT22;5100;45.176;5.714;2022-10-22T00:10:08;19.50;84.00
10121;DHT22;5100;45.176;5.714;2022-10-22T00:12:34;19.50;84.10
10121;DHT22;5100;45.176;5.714;2022-10-22T00:15:00;19.50;84.00
10121;DHT22;5100;45.176;5.714;2022-10-22T00:17:26;19.50;84.00
10121;DHT22;5100;45.176;5.714;2022-10-22T00:19:52;19.40;84.00
10121;DHT22;5100;45.176;5.714;2022-10-22T00:22:18;19.40;84.00
10121;DHT22;5100;45.176;5.714;2022-10-22T00:24:44;19.40;84.00
10121;DHT22;5100;45.176;5.714;2022-10-22T00:27:11;19.40;83.90
10121;DHT22;5100;45.176;5.714;2022-10-22T00:29:37;19.40;83.80
10121;DHT22;5100;45.176;5.714;2022-10-22T00:32:04;19.40;83.90
10121;DHT22;5100;45.176;5.714;2022-10-22T00:34:31;19.40;84.10
10121;DHT22;5100;45.176;5.714;2022-10-22T00:36:58;19.40;84.00
10121;DHT22;5100;45.176;5.714;2022-10-22T00:39:26;19.30;84.00
10121;DHT22;5100;45.176;5.714;2022-10-22T00:41:54;19.30;84.10
10121;DHT22;5100;45.176;5.714;2022-10-22T00:47:27;19.30;84.30
10121;DHT22;5100;45.176;5.714;2022-10-22T00:49:55;19.30;84.40
10121;DHT22;5100;45.176;5.714;2022-10-22T00:52:22;19.30;84.50
10121;DHT22;5100;45.176;5.714;2022-10-22T00:54:49;19.30;84.50
10121;DHT22;5100;45.176;5.714;2022-10-22T00:57:18;19.30;84.60
10121;DHT22;5100;45.176;5.714;2022-10-22T00:59:45;19.30;84.60
10121;DHT22;5100;45.176;5.714;2022-10-22T01:02:12;19.30;84.60
10121;DHT22;5100;45.176;5.714;2022-10-22T01:04:39;19.30;84.60
10121;DHT22;5100;45.176;5.714;2022-10-22T01:07:05;19.30;84.50
10121;DHT22;5100;45.176;5.714;2022-10-22T01:12:27;19.30;84.50
10121;DHT22;5100;45.176;5.714;2022-10-22T01:15:19;19.30;84.50
10121;DHT22;5100;45.176;5.714;2022-10-22T01:32:00;19.30;84.40
10121;DHT22;5100;45.176;5.714;2022-10-22T01:34:28;19.30;84.50
10121;DHT22;5100;45.176;5.714;2022-10-22T01:36:56;19.30;84.50
10121;DHT22;5100;45.176;5.714;2022-10-22T01:39:24;19.30;84.40
10121;DHT22;5100;45.176;5.714;2022-10-22T01:41:54;19.30;84.50
10121;DHT22;5100;45.176;5.714;2022-10-22T01:44:26;19.30;84.50
10121;DHT22;5100;45.176;5.714;2022-10-22T01:58:07;19.30;84.30
10121;DHT22;5100;45.176;5.714;2022-10-22T02:00:39;19.30;84.30
10121;DHT22;5100;45.176;5.714;2022-10-22T02:03:13;19.30;84.20
10121;DHT22;5100;45.176;5.714;2022-10-22T02:06:02;19.20;84.20
10121;DHT22;5100;45.176;5.714;2022-10-22T02:08:31;19.30;84.20
10121;DHT22;5100;45.176;5.714;2022-10-22T02:10:59;19.20;84.20
10121;DHT22;5100;45.176;5.714;2022-10-22T02:13:34;19.20;84.10
10121;DHT22;5100;45.176;5.714;2022-10-22T02:16:03;19.20;84.10
10121;DHT22;5100;45.176;5.714;2022-10-22T02:18:32;19.20;84.10
10121;DHT22;5100;45.176;5.714;2022-10-22T02:20:59;19.20;84.20
10121;DHT22;5100;45.176;5.714;2022-10-22T02:23:27;19.20;84.20
10121;DHT22;5100;45.176;5.714;2022-10-22T02:25:59;19.20;84.10
10121;DHT22;5100;45.176;5.714;2022-10-22T02:28:38;19.20;84.10
10121;DHT22;5100;45.176;5.714;2022-10-22T02:31:23;19.20;84.10
10121;DHT22;5100;45.176;5.714;2022-10-22T02:33:53;19.20;84.00
10121;DHT22;5100;45.176;5.714;2022-10-22T02:36:21;19.20;84.00
10121;DHT22;5100;45.176;5.714;2022-10-22T02:38:49;19.20;84.00
10121;DHT22;5100;45.176;5.714;2022-10-22T02:41:17;19.20;84.00
10121;DHT22;5100;45.176;5.714;2022-10-22T02:43:48;19.20;84.20
10121;DHT22;5100;45.176;5.714;2022-10-22T02:46:14;19.20;84.10
10121;DHT22;5100;45.176;5.714;2022-10-22T02:48:40;19.20;84.10
10121;DHT22;5100;45.176;5.714;2022-10-22T02:51:06;19.20;84.20
10121;DHT22;5100;45.176;5.714;2022-10-22T02:53:32;19.20;84.40
10121;DHT22;5100;45.176;5.714;2022-10-22T02:55:59;19.20;84.30
10121;DHT22;5100;45.176;5.714;2022-10-22T02:58:24;19.20;84.30
10121;DHT22;5100;45.176;5.714;2022-10-22T03:00:50;19.20;84.30
10121;DHT22;5100;45.176;5.714;2022-10-22T03:03:17;19.20;84.10
10121;DHT22;5100;45.176;5.714;2022-10-22T03:05:43;19.20;84.30
10121;DHT22;5100;45.176;5.714;2022-10-22T03:08:09;19.20;84.20
10121;DHT22;5100;45.176;5.714;2022-10-22T03:10:35;19.20;83.90
10121;DHT22;5100;45.176;5.714;2022-10-22T03:13:01;19.20;83.70
10121;DHT22;5100;45.176;5.714;2022-10-22T03:15:27;19.20;83.60
10121;DHT22;5100;45.176;5.714;2022-10-22T03:17:53;19.20;83.60
10121;DHT22;5100;45.176;5.714;2022-10-22T03:20:19;19.20;83.60
10121;DHT22;5100;45.176;5.714;2022-10-22T03:22:45;19.20;84.00
10121;DHT22;5100;45.176;5.714;2022-10-22T03:25:15;19.20;84.20
10121;DHT22;5100;45.176;5.714;2022-10-22T03:27:43;19.20;84.10
10121;DHT22;5100;45.176;5.714;2022-10-22T03:30:10;19.20;84.30
10121;DHT22;5100;45.176;5.714;2022-10-22T03:32:36;19.20;84.40
10121;DHT22;5100;45.176;5.714;2022-10-22T03:35:03;19.20;84.40
10121;DHT22;5100;45.176;5.714;2022-10-22T03:37:30;19.20;84.10
10121;DHT22;5100;45.176;5.714;2022-10-22T03:39:57;19.20;84.10
10121;DHT22;5100;45.176;5.714;2022-10-22T03:42:23;19.20;84.30
10121;DHT22;5100;45.176;5.714;2022-10-22T03:44:50;19.20;84.20
10121;DHT22;5100;45.176;5.714;2022-10-22T03:47:16;19.20;84.00
10121;DHT22;5100;45.176;5.714;2022-10-22T03:49:42;19.20;84.20
10121;DHT22;5100;45.176;5.714;2022-10-22T03:52:12;19.20;84.30
10121;DHT22;5100;45.176;5.714;2022-10-22T03:54:39;19.20;84.30
10121;DHT22;5100;45.176;5.714;2022-10-22T03:57:07;19.20;84.20
10121;DHT22;5100;45.176;5.714;2022-10-22T03:59:35;19.20;84.10
10121;DHT22;5100;45.176;5.714;2022-10-22T04:02:01;19.20;84.20
10121;DHT22;5100;45.176;5.714;2022-10-22T04:04:27;19.20;84.20
10121;DHT22;5100;45.176;5.714;2022-10-22T04:06:54;19.20;84.30
10121;DHT22;5100;45.176;5.714;2022-10-22T04:09:20;19.20;84.40
10121;DHT22;5100;45.176;5.714;2022-10-22T04:11:46;19.20;84.30
10121;DHT22;5100;45.176;5.714;2022-10-22T04:14:12;19.20;84.30
10121;DHT22;5100;45.176;5.714;2022-10-22T04:16:39;19.10;84.10
10121;DHT22;5100;45.176;5.714;2022-10-22T04:19:06;19.10;84.10
10121;DHT22;5100;45.176;5.714;2022-10-22T04:21:32;19.10;83.90
10121;DHT22;5100;45.176;5.714;2022-10-22T04:23:58;19.20;83.80
10121;DHT22;5100;45.176;5.714;2022-10-22T04:26:25;19.10;83.70
10121;DHT22;5100;45.176;5.714;2022-10-22T04:28:51;19.10;83.60
10121;DHT22;5100;45.176;5.714;2022-10-22T04:31:21;19.10;83.40
10121;DHT22;5100;45.176;5.714;2022-10-22T04:33:52;19.10;83.30
10121;DHT22;5100;45.176;5.714;2022-10-22T04:36:19;19.10;83.40
10121;DHT22;5100;45.176;5.714;2022-10-22T04:38:45;19.10;83.30
10121;DHT22;5100;45.176;5.714;2022-10-22T04:41:18;19.10;83.30
10121;DHT22;5100;45.176;5.714;2022-10-22T04:43:44;19.10;83.40
10121;DHT22;5100;45.176;5.714;2022-10-22T04:46:11;19.10;83.40
10121;DHT22;5100;45.176;5.714;2022-10-22T04:48:40;19.10;83.30
10121;DHT22;5100;45.176;5.714;2022-10-22T04:51:09;19.10;83.40
10121;DHT22;5100;45.176;5.714;2022-10-22T04:53:35;19.10;83.50
10121;DHT22;5100;45.176;5.714;2022-10-22T04:58:42;19.10;83.50
10121;DHT22;5100;45.176;5.714;2022-10-22T05:01:20;19.10;83.60
10121;DHT22;5100;45.176;5.714;2022-10-22T05:03:48;19.10;83.50
10121;DHT22;5100;45.176;5.714;2022-10-22T05:06:15;19.00;83.40
10121;DHT22;5100;45.176;5.714;2022-10-22T05:08:41;19.00;83.40
10121;DHT22;5100;45.176;5.714;2022-10-22T05:11:17;19.00;83.30
10121;DHT22;5100;45.176;5.714;2022-10-22T05:13:43;19.00;83.20
10121;DHT22;5100;45.176;5.714;2022-10-22T05:16:10;19.00;83.30
10121;DHT22;5100;45.176;5.714;2022-10-22T05:18:37;19.00;83.30
10121;DHT22;5100;45.176;5.714;2022-10-22T05:21:08;19.00;83.40
10121;DHT22;5100;45.176;5.714;2022-10-22T05:23:34;19.00;83.20
10121;DHT22;5100;45.176;5.714;2022-10-22T05:26:04;19.00;83.20
10121;DHT22;5100;45.176;5.714;2022-10-22T05:28:31;19.00;83.20
10121;DHT22;5100;45.176;5.714;2022-10-22T05:30:59;18.90;83.20
10121;DHT22;5100;45.176;5.714;2022-10-22T05:33:27;19.00;83.10
10121;DHT22;5100;45.176;5.714;2022-10-22T05:35:53;18.90;83.00
10121;DHT22;5100;45.176;5.714;2022-10-22T05:38:20;18.90;82.90
10121;DHT22;5100;45.176;5.714;2022-10-22T05:40:45;18.90;82.90
10121;DHT22;5100;45.176;5.714;2022-10-22T05:43:12;18.90;82.80
10121;DHT22;5100;45.176;5.714;2022-10-22T05:45:39;18.90;82.80
10121;DHT22;5100;45.176;5.714;2022-10-22T05:48:06;18.90;82.40
10121;DHT22;5100;45.176;5.714;2022-10-22T05:50:36;18.90;82.40
10121;DHT22;5100;45.176;5.714;2022-10-22T05:53:04;18.90;82.40
10121;DHT22;5100;45.176;5.714;2022-10-22T05:55:34;18.90;82.40
10121;DHT22;5100;45.176;5.714;2022-10-22T05:58:02;18.90;82.70
10121;DHT22;5100;45.176;5.714;2022-10-22T06:00:28;18.90;82.80
10121;DHT22;5100;45.176;5.714;2022-10-22T06:02:55;18.90;82.80
10121;DHT22;5100;45.176;5.714;2022-10-22T06:05:20;18.90;82.80
10121;DHT22;5100;45.176;5.714;2022-10-22T06:07:46;18.90;82.80
10121;DHT22;5100;45.176;5.714;2022-10-22T06:10:16;18.90;82.90
10121;DHT22;5100;45.176;5.714;2022-10-22T06:12:42;19.00;83.10
10121;DHT22;5100;45.176;5.714;2022-10-22T06:15:16;19.00;83.00
10121;DHT22;5100;45.176;5.714;2022-10-22T06:17:46;19.10;82.90
10121;DHT22;5100;45.176;5.714;2022-10-22T06:20:13;19.10;82.80
10121;DHT22;5100;45.176;5.714;2022-10-22T06:22:39;19.10;82.70
10121;DHT22;5100;45.176;5.714;2022-10-22T06:25:06;19.10;82.60
10121;DHT22;5100;45.176;5.714;2022-10-22T06:27:35;19.10;82.60
10121;DHT22;5100;45.176;5.714;2022-10-22T06:30:01;19.10;82.50
10121;DHT22;5100;45.176;5.714;2022-10-22T06:32:27;19.10;82.50
10121;DHT22;5100;45.176;5.714;2022-10-22T06:34:53;19.10;82.40
10121;DHT22;5100;45.176;5.714;2022-10-22T06:37:19;19.10;82.30
10121;DHT22;5100;45.176;5.714;2022-10-22T06:39:45;19.10;82.00
10121;DHT22;5100;45.176;5.714;2022-10-22T06:42:11;19.10;81.90
10121;DHT22;5100;45.176;5.714;2022-10-22T06:44:38;19.10;81.70
10121;DHT22;5100;45.176;5.714;2022-10-22T06:47:04;19.10;81.50
10121;DHT22;5100;45.176;5.714;2022-10-22T06:49:30;19.10;81.50
10121;DHT22;5100;45.176;5.714;2022-10-22T06:51:56;19.10;81.50
10121;DHT22;5100;45.176;5.714;2022-10-22T06:54:22;19.10;81.30
10121;DHT22;5100;45.176;5.714;2022-10-22T06:56:48;19.10;80.80
10121;DHT22;5100;45.176;5.714;2022-10-22T06:59:14;19.10;80.70
10121;DHT22;5100;45.176;5.714;2022-10-22T07:01:41;19.10;80.70
10121;DHT22;5100;45.176;5.714;2022-10-22T07:04:08;19.10;80.80
10121;DHT22;5100;45.176;5.714;2022-10-22T07:06:34;19.10;81.00
10121;DHT22;5100;45.176;5.714;2022-10-22T07:09:01;19.10;81.20
10121;DHT22;5100;45.176;5.714;2022-10-22T07:11:29;19.10;81.30
10121;DHT22;5100;45.176;5.714;2022-10-22T07:13:57;19.10;81.30
10121;DHT22;5100;45.176;5.714;2022-10-22T07:16:23;19.10;81.20
10121;DHT22;5100;45.176;5.714;2022-10-22T07:18:49;19.10;81.30
10121;DHT22;5100;45.176;5.714;2022-10-22T07:21:17;19.10;81.10
10121;DHT22;5100;45.176;5.714;2022-10-22T07:23:43;19.10;80.90
10121;DHT22;5100;45.176;5.714;2022-10-22T07:26:12;19.10;80.70
10121;DHT22;5100;45.176;5.714;2022-10-22T07:28:38;19.10;80.90
10121;DHT22;5100;45.176;5.714;2022-10-22T07:31:07;19.10;81.20
10121;DHT22;5100;45.176;5.714;2022-10-22T07:33:34;19.10;81.10
10121;DHT22;5100;45.176;5.714;2022-10-22T07:36:03;19.00;81.00
10121;DHT22;5100;45.176;5.714;2022-10-22T07:38:35;19.10;80.80
10121;DHT22;5100;45.176;5.714;2022-10-22T07:41:01;19.00;80.70
10121;DHT22;5100;45.176;5.714;2022-10-22T07:43:27;19.00;80.70
10121;DHT22;5100;45.176;5.714;2022-10-22T07:45:53;19.00;80.70
10121;DHT22;5100;45.176;5.714;2022-10-22T07:48:22;19.00;80.70
10121;DHT22;5100;45.176;5.714;2022-10-22T07:50:49;19.00;80.90
10121;DHT22;5100;45.176;5.714;2022-10-22T07:53:16;19.00;80.90
10121;DHT22;5100;45.176;5.714;2022-10-22T07:55:42;19.00;81.10
10121;DHT22;5100;45.176;5.714;2022-10-22T07:58:08;19.00;81.20
10121;DHT22;5100;45.176;5.714;2022-10-22T08:00:34;19.00;80.90
10121;DHT22;5100;45.176;5.714;2022-10-22T08:03:00;19.00;80.70
10121;DHT22;5100;45.176;5.714;2022-10-22T08:05:26;19.00;80.70
10121;DHT22;5100;45.176;5.714;2022-10-22T08:07:52;19.00;80.80
10121;DHT22;5100;45.176;5.714;2022-10-22T08:10:18;19.00;80.80
10121;DHT22;5100;45.176;5.714;2022-10-22T08:12:44;19.10;80.60
10121;DHT22;5100;45.176;5.714;2022-10-22T08:15:10;19.10;80.60
10121;DHT22;5100;45.176;5.714;2022-10-22T08:17:36;19.10;80.70
10121;DHT22;5100;45.176;5.714;2022-10-22T08:20:02;19.10;80.80
10121;DHT22;5100;45.176;5.714;2022-10-22T08:22:28;19.10;80.80
10121;DHT22;5100;45.176;5.714;2022-10-22T08:24:54;19.20;80.70
10121;DHT22;5100;45.176;5.714;2022-10-22T08:27:20;19.20;80.80
10121;DHT22;5100;45.176;5.714;2022-10-22T08:29:46;19.20;80.30
10121;DHT22;5100;45.176;5.714;2022-10-22T08:32:12;19.30;80.10
10121;DHT22;5100;45.176;5.714;2022-10-22T08:34:38;19.30;80.10
10121;DHT22;5100;45.176;5.714;2022-10-22T08:37:04;19.30;79.70
10121;DHT22;5100;45.176;5.714;2022-10-22T08:39:33;19.40;79.60
10121;DHT22;5100;45.176;5.714;2022-10-22T08:50:32;19.30;79.20
10121;DHT22;5100;45.176;5.714;2022-10-22T08:53:02;19.30;79.10
10121;DHT22;5100;45.176;5.714;2022-10-22T08:55:30;19.30;79.30
10121;DHT22;5100;45.176;5.714;2022-10-22T09:00:46;19.30;79.20
10121;DHT22;5100;45.176;5.714;2022-10-22T09:08:36;19.40;79.20
10121;DHT22;5100;45.176;5.714;2022-10-22T09:11:21;19.40;78.90
10121;DHT22;5100;45.176;5.714;2022-10-22T09:13:49;19.40;78.90
10121;DHT22;5100;45.176;5.714;2022-10-22T09:16:26;19.40;78.40
10121;DHT22;5100;45.176;5.714;2022-10-22T09:19:17;19.40;78.20
10121;DHT22;5100;45.176;5.714;2022-10-22T09:22:27;19.50;78.00
10121;DHT22;5100;45.176;5.714;2022-10-22T09:24:59;19.50;77.90
10121;DHT22;5100;45.176;5.714;2022-10-22T09:27:29;19.50;78.00
10121;DHT22;5100;45.176;5.714;2022-10-22T09:29:55;19.50;77.80
10121;DHT22;5100;45.176;5.714;2022-10-22T09:32:22;19.60;77.70
10121;DHT22;5100;45.176;5.714;2022-10-22T09:34:49;19.60;77.70
10121;DHT22;5100;45.176;5.714;2022-10-22T09:37:18;19.60;77.60
10121;DHT22;5100;45.176;5.714;2022-10-22T09:39:46;19.60;77.40
10121;DHT22;5100;45.176;5.714;2022-10-22T09:42:18;19.60;76.80
10121;DHT22;5100;45.176;5.714;2022-10-22T09:44:54;19.60;76.30
10121;DHT22;5100;45.176;5.714;2022-10-22T09:47:33;19.70;75.60
10121;DHT22;5100;45.176;5.714;2022-10-22T09:55:48;19.70;75.60
10121;DHT22;5100;45.176;5.714;2022-10-22T09:58:16;19.70;76.10
10121;DHT22;5100;45.176;5.714;2022-10-22T10:00:44;19.70;75.60
10121;DHT22;5100;45.176;5.714;2022-10-22T10:03:36;19.80;75.30
10121;DHT22;5100;45.176;5.714;2022-10-22T10:06:02;19.80;75.10
10121;DHT22;5100;45.176;5.714;2022-10-22T10:08:29;19.80;75.00
10121;DHT22;5100;45.176;5.714;2022-10-22T10:13:42;19.80;74.70
10121;DHT22;5100;45.176;5.714;2022-10-22T10:19:59;19.80;74.80
10121;DHT22;5100;45.176;5.714;2022-10-22T10:28:15;19.90;75.60
10121;DHT22;5100;45.176;5.714;2022-10-22T10:30:57;19.90;75.70
10121;DHT22;5100;45.176;5.714;2022-10-22T10:36:43;19.90;76.20
10121;DHT22;5100;45.176;5.714;2022-10-22T10:39:22;19.90;76.00
10121;DHT22;5100;45.176;5.714;2022-10-22T10:50:33;20.00;75.40
10121;DHT22;5100;45.176;5.714;2022-10-22T10:59:44;20.10;74.50
10121;DHT22;5100;45.176;5.714;2022-10-22T11:05:14;20.10;74.20
10121;DHT22;5100;45.176;5.714;2022-10-22T11:07:55;20.10;74.10
10121;DHT22;5100;45.176;5.714;2022-10-22T11:10:38;20.10;74.00
10121;DHT22;5100;45.176;5.714;2022-10-22T11:21:40;20.20;73.30
10121;DHT22;5100;45.176;5.714;2022-10-22T11:24:22;20.20;73.10
10121;DHT22;5100;45.176;5.714;2022-10-22T11:26:54;20.20;72.70
10121;DHT22;5100;45.176;5.714;2022-10-22T11:29:24;20.20;72.40
10121;DHT22;5100;45.176;5.714;2022-10-22T11:31:53;20.30;72.60
10121;DHT22;5100;45.176;5.714;2022-10-22T11:34:33;20.30;72.80
10121;DHT22;5100;45.176;5.714;2022-10-22T11:37:02;20.30;73.10
10121;DHT22;5100;45.176;5.714;2022-10-22T11:39:46;20.30;73.30
10121;DHT22;5100;45.176;5.714;2022-10-22T11:42:34;20.30;73.30
10121;DHT22;5100;45.176;5.714;2022-10-22T11:45:26;20.30;73.30
10121;DHT22;5100;45.176;5.714;2022-10-22T11:58:42;20.40;73.70
10121;DHT22;5100;45.176;5.714;2022-10-22T12:06:26;20.50;72.60
10121;DHT22;5100;45.176;5.714;2022-10-22T12:11:26;20.50;72.50
10121;DHT22;5100;45.176;5.714;2022-10-22T12:17:04;20.50;72.80
10121;DHT22;5100;45.176;5.714;2022-10-22T12:19:41;20.50;72.50
10121;DHT22;5100;45.176;5.714;2022-10-22T12:24:44;20.50;72.10
10121;DHT22;5100;45.176;5.714;2022-10-22T12:27:36;20.60;72.30
10121;DHT22;5100;45.176;5.714;2022-10-22T12:30:17;20.60;72.00
10121;DHT22;5100;45.176;5.714;2022-10-22T12:32:43;20.60;72.00
10121;DHT22;5100;45.176;5.714;2022-10-22T12:35:18;20.60;71.90
10121;DHT22;5100;45.176;5.714;2022-10-22T12:37:48;20.60;71.90
10121;DHT22;5100;45.176;5.714;2022-10-22T12:40:17;20.60;72.00
10121;DHT22;5100;45.176;5.714;2022-10-22T12:42:57;20.70;71.50
10121;DHT22;5100;45.176;5.714;2022-10-22T12:45:29;20.70;71.40
10121;DHT22;5100;45.176;5.714;2022-10-22T12:48:00;20.70;70.80
10121;DHT22;5100;45.176;5.714;2022-10-22T12:50:36;20.70;70.90
10121;DHT22;5100;45.176;5.714;2022-10-22T12:55:54;20.80;70.70
10121;DHT22;5100;45.176;5.714;2022-10-22T12:58:25;20.70;70.80
10121;DHT22;5100;45.176;5.714;2022-10-22T13:00:55;20.80;70.90
10121;DHT22;5100;45.176;5.714;2022-10-22T13:03:28;20.80;70.80
10121;DHT22;5100;45.176;5.714;2022-10-22T13:05:54;20.80;70.10
10121;DHT22;5100;45.176;5.714;2022-10-22T13:08:22;20.80;70.00
10121;DHT22;5100;45.176;5.714;2022-10-22T13:10:53;20.80;69.60
10121;DHT22;5100;45.176;5.714;2022-10-22T13:13:47;20.90;69.70
10121;DHT22;5100;45.176;5.714;2022-10-22T13:16:24;20.90;69.80
10121;DHT22;5100;45.176;5.714;2022-10-22T13:18:52;20.90;69.90
10121;DHT22;5100;45.176;5.714;2022-10-22T13:23:53;20.90;70.00
10121;DHT22;5100;45.176;5.714;2022-10-22T13:26:19;21.00;70.30
10121;DHT22;5100;45.176;5.714;2022-10-22T13:28:53;21.00;69.70
10121;DHT22;5100;45.176;5.714;2022-10-22T13:31:26;21.00;69.50
10121;DHT22;5100;45.176;5.714;2022-10-22T13:33:58;21.00;69.80
10121;DHT22;5100;45.176;5.714;2022-10-22T13:36:24;21.00;69.70
10121;DHT22;5100;45.176;5.714;2022-10-22T13:38:50;21.00;69.80
10121;DHT22;5100;45.176;5.714;2022-10-22T13:41:37;21.00;69.70
10121;DHT22;5100;45.176;5.714;2022-10-22T13:44:03;21.10;69.60
10121;DHT22;5100;45.176;5.714;2022-10-22T13:46:30;21.10;69.50
10121;DHT22;5100;45.176;5.714;2022-10-22T13:48:56;21.10;69.60
10121;DHT22;5100;45.176;5.714;2022-10-22T13:51:34;21.10;69.50
10121;DHT22;5100;45.176;5.714;2022-10-22T13:54:00;21.10;69.00
10121;DHT22;5100;45.176;5.714;2022-10-22T13:56:28;21.10;68.90
10121;DHT22;5100;45.176;5.714;2022-10-22T13:58:54;21.20;68.90
10121;DHT22;5100;45.176;5.714;2022-10-22T14:01:25;21.20;68.90
10121;DHT22;5100;45.176;5.714;2022-10-22T14:03:54;21.20;68.90
10121;DHT22;5100;45.176;5.714;2022-10-22T14:06:23;21.20;68.80
10121;DHT22;5100;45.176;5.714;2022-10-22T14:08:54;21.20;68.80
10121;DHT22;5100;45.176;5.714;2022-10-22T14:11:21;21.20;68.70
10121;DHT22;5100;45.176;5.714;2022-10-22T14:13:47;21.20;68.80
10121;DHT22;5100;45.176;5.714;2022-10-22T14:16:22;21.30;68.50
10121;DHT22;5100;45.176;5.714;2022-10-22T14:18:49;21.30;68.40
10121;DHT22;5100;45.176;5.714;2022-10-22T14:21:16;21.40;68.30
10121;DHT22;5100;45.176;5.714;2022-10-22T14:23:45;21.40;68.10
10121;DHT22;5100;45.176;5.714;2022-10-22T14:26:23;21.40;68.20
10121;DHT22;5100;45.176;5.714;2022-10-22T14:28:49;21.40;68.20
10121;DHT22;5100;45.176;5.714;2022-10-22T14:31:16;21.40;68.50
10121;DHT22;5100;45.176;5.714;2022-10-22T14:33:42;21.40;68.80
10121;DHT22;5100;45.176;5.714;2022-10-22T14:36:11;21.40;68.90
10121;DHT22;5100;45.176;5.714;2022-10-22T14:38:38;21.40;69.20
10121;DHT22;5100;45.176;5.714;2022-10-22T14:41:17;21.40;69.20
10121;DHT22;5100;45.176;5.714;2022-10-22T14:43:45;21.50;69.20
10121;DHT22;5100;45.176;5.714;2022-10-22T14:46:13;21.50;69.20
10121;DHT22;5100;45.176;5.714;2022-10-22T14:48:39;21.50;69.20
10121;DHT22;5100;45.176;5.714;2022-10-22T14:51:18;21.50;69.10
10121;DHT22;5100;45.176;5.714;2022-10-22T14:53:45;21.50;69.10
10121;DHT22;5100;45.176;5.714;2022-10-22T14:56:13;21.50;69.00
10121;DHT22;5100;45.176;5.714;2022-10-22T14:58:40;21.50;69.00
10121;DHT22;5100;45.176;5.714;2022-10-22T15:01:06;21.50;69.00
10121;DHT22;5100;45.176;5.714;2022-10-22T15:03:33;21.50;69.10
10121;DHT22;5100;45.176;5.714;2022-10-22T15:05:59;21.50;68.90
10121;DHT22;5100;45.176;5.714;2022-10-22T15:08:25;21.40;68.90
10121;DHT22;5100;45.176;5.714;2022-10-22T15:10:59;21.40;69.60
10121;DHT22;5100;45.176;5.714;2022-10-22T15:13:27;21.40;69.70
10121;DHT22;5100;45.176;5.714;2022-10-22T15:15:54;21.40;69.90
10121;DHT22;5100;45.176;5.714;2022-10-22T15:18:20;21.40;70.00
10121;DHT22;5100;45.176;5.714;2022-10-22T15:21:15;21.40;70.10
10121;DHT22;5100;45.176;5.714;2022-10-22T15:23:41;21.40;70.30
10121;DHT22;5100;45.176;5.714;2022-10-22T15:26:08;21.40;70.20
10121;DHT22;5100;45.176;5.714;2022-10-22T15:28:35;21.40;70.30
10121;DHT22;5100;45.176;5.714;2022-10-22T15:31:02;21.40;70.60
10121;DHT22;5100;45.176;5.714;2022-10-22T15:33:28;21.40;70.70
10121;DHT22;5100;45.176;5.714;2022-10-22T15:35:55;21.40;70.90
10121;DHT22;5100;45.176;5.714;2022-10-22T15:38:26;21.40;71.00
10121;DHT22;5100;45.176;5.714;2022-10-22T15:41:04;21.50;71.20
10121;DHT22;5100;45.176;5.714;2022-10-22T15:43:30;21.40;71.20
10121;DHT22;5100;45.176;5.714;2022-10-22T15:46:16;21.40;71.20
10121;DHT22;5100;45.176;5.714;2022-10-22T15:48:44;21.40;71.10
10121;DHT22;5100;45.176;5.714;2022-10-22T15:51:15;21.40;71.10
10121;DHT22;5100;45.176;5.714;2022-10-22T15:53:42;21.50;70.90
10121;DHT22;5100;45.176;5.714;2022-10-22T15:56:23;21.40;70.20
10121;DHT22;5100;45.176;5.714;2022-10-22T15:58:57;21.40;70.00
10121;DHT22;5100;45.176;5.714;2022-10-22T16:01:24;21.40;69.90
10121;DHT22;5100;45.176;5.714;2022-10-22T16:03:52;21.40;69.90
10121;DHT22;5100;45.176;5.714;2022-10-22T16:06:34;21.40;69.90
10121;DHT22;5100;45.176;5.714;2022-10-22T16:09:03;21.40;70.10
10121;DHT22;5100;45.176;5.714;2022-10-22T16:11:30;21.40;70.10
10121;DHT22;5100;45.176;5.714;2022-10-22T16:13:57;21.40;70.20
10121;DHT22;5100;45.176;5.714;2022-10-22T16:16:26;21.40;70.30
10121;DHT22;5100;45.176;5.714;2022-10-22T16:18:52;21.40;70.40
10121;DHT22;5100;45.176;5.714;2022-10-22T16:21:20;21.40;70.50
10121;DHT22;5100;45.176;5.714;2022-10-22T16:23:47;21.40;70.60
10121;DHT22;5100;45.176;5.714;2022-10-22T16:26:13;21.40;70.80
10121;DHT22;5100;45.176;5.714;2022-10-22T16:28:41;21.40;70.90
10121;DHT22;5100;45.176;5.714;2022-10-22T16:31:09;21.40;71.10
10121;DHT22;5100;45.176;5.714;2022-10-22T16:33:37;21.30;71.20
10121;DHT22;5100;45.176;5.714;2022-10-22T16:36:16;21.30;71.20
10121;DHT22;5100;45.176;5.714;2022-10-22T16:38:48;21.30;71.30
10121;DHT22;5100;45.176;5.714;2022-10-22T16:41:19;21.30;71.40
10121;DHT22;5100;45.176;5.714;2022-10-22T16:43:48;21.30;71.60
10121;DHT22;5100;45.176;5.714;2022-10-22T16:46:15;21.30;72.00
10121;DHT22;5100;45.176;5.714;2022-10-22T16:48:46;21.30;71.90
10121;DHT22;5100;45.176;5.714;2022-10-22T16:51:13;21.30;71.90
10121;DHT22;5100;45.176;5.714;2022-10-22T16:53:40;21.20;72.10
10121;DHT22;5100;45.176;5.714;2022-10-22T16:56:10;21.20;72.30
10121;DHT22;5100;45.176;5.714;2022-10-22T16:58:37;21.20;72.40
10121;DHT22;5100;45.176;5.714;2022-10-22T17:01:07;21.20;72.60
10121;DHT22;5100;45.176;5.714;2022-10-22T17:03:33;21.20;72.60
10121;DHT22;5100;45.176;5.714;2022-10-22T17:06:00;21.20;72.70
10121;DHT22;5100;45.176;5.714;2022-10-22T17:08:27;21.10;73.00
10121;DHT22;5100;45.176;5.714;2022-10-22T17:10:53;21.10;73.00
10121;DHT22;5100;45.176;5.714;2022-10-22T17:13:20;21.10;73.40
10121;DHT22;5100;45.176;5.714;2022-10-22T17:15:46;21.10;73.70
10121;DHT22;5100;45.176;5.714;2022-10-22T17:18:12;21.10;73.70
10121;DHT22;5100;45.176;5.714;2022-10-22T17:20:41;21.10;73.70
10121;DHT22;5100;45.176;5.714;2022-10-22T17:23:09;21.10;73.70
10121;DHT22;5100;45.176;5.714;2022-10-22T17:25:43;21.00;74.00
10121;DHT22;5100;45.176;5.714;2022-10-22T17:28:10;21.00;73.50
10121;DHT22;5100;45.176;5.714;2022-10-22T17:30:36;21.00;73.50
10121;DHT22;5100;45.176;5.714;2022-10-22T17:33:06;21.00;73.70
10121;DHT22;5100;45.176;5.714;2022-10-22T17:35:33;21.00;73.70
10121;DHT22;5100;45.176;5.714;2022-10-22T17:37:59;21.00;73.90
10121;DHT22;5100;45.176;5.714;2022-10-22T17:40:25;21.00;74.00
10121;DHT22;5100;45.176;5.714;2022-10-22T17:42:52;21.00;74.00
10121;DHT22;5100;45.176;5.714;2022-10-22T17:45:18;21.00;74.00
10121;DHT22;5100;45.176;5.714;2022-10-22T17:47:44;20.90;74.10
10121;DHT22;5100;45.176;5.714;2022-10-22T17:50:10;20.90;74.10
10121;DHT22;5100;45.176;5.714;2022-10-22T17:52:36;20.90;74.00
10121;DHT22;5100;45.176;5.714;2022-10-22T17:55:03;20.90;73.80
10121;DHT22;5100;45.176;5.714;2022-10-22T17:57:29;20.90;73.80
10121;DHT22;5100;45.176;5.714;2022-10-22T17:59:55;20.90;73.80
10121;DHT22;5100;45.176;5.714;2022-10-22T18:02:21;20.90;73.80
10121;DHT22;5100;45.176;5.714;2022-10-22T18:04:50;20.90;73.90